createdAt,value
2022-12-27T00:00:34.887Z,9.07
2022-12-27T00:03:02.132Z,9.65
2022-12-27T00:05:29.341Z,10.35
2022-12-27T00:07:56.467Z,10.02
2022-12-27T00:10:23.629Z,9.60
2022-12-27T00:12:50.815Z,9.85
2022-12-27T00:15:17.996Z,9.60
2022-12-27T00:17:45.088Z,9.82
2022-12-27T00:20:12.400Z,9.90
2022-12-27T00:22:40.039Z,9.75
2022-12-27T00:25:07.341Z,10.63
2022-12-27T00:27:34.502Z,10.30
2022-12-27T00:30:01.571Z,10.02
2022-12-27T00:32:28.691Z,9.50
2022-12-27T00:34:56.181Z,9.20
2022-12-27T00:37:23.319Z,10.52
2022-12-27T00:39:50.443Z,8.85
2022-12-27T00:42:17.591Z,9.60
2022-12-27T00:44:44.741Z,9.45
2022-12-27T00:47:11.854Z,8.40
2022-12-27T00:49:39.025Z,8.70
2022-12-27T00:52:06.128Z,8.75
2022-12-27T00:54:33.228Z,9.20
2022-12-27T00:57:00.381Z,10.18
2022-12-27T00:59:27.542Z,10.10
2022-12-27T01:01:54.750Z,9.77
2022-12-27T01:04:22.035Z,10.60
2022-12-27T01:06:49.119Z,11.10
2022-12-27T01:09:16.194Z,13.05
2022-12-27T01:11:43.343Z,12.48
2022-12-27T01:14:10.539Z,15.23
2022-12-27T01:16:38.455Z,13.65
2022-12-27T01:19:05.654Z,13.02
2022-12-27T01:21:32.747Z,11.48
2022-12-27T01:23:59.925Z,10.63
2022-12-27T01:26:27.073Z,10.40
2022-12-27T01:28:54.528Z,11.07
2022-12-27T01:31:22.806Z,10.52
2022-12-27T01:33:50.055Z,9.90
2022-12-27T01:36:21.062Z,10.52
2022-12-27T01:38:48.752Z,9.18
2022-12-27T01:41:39.339Z,9.55
2022-12-27T01:44:24.979Z,10.13
2022-12-27T01:46:52.179Z,9.35
2022-12-27T01:49:19.276Z,9.55
2022-12-27T01:51:46.369Z,10.52
2022-12-27T01:54:13.595Z,9.75
2022-12-27T01:56:40.745Z,9.35
2022-12-27T01:59:09.014Z,9.98
2022-12-27T02:01:39.141Z,9.82
2022-12-27T02:04:13.183Z,10.02
2022-12-27T02:06:40.648Z,10.05
2022-12-27T02:09:16.246Z,10.48
2022-12-27T02:11:55.166Z,10.25
2022-12-27T02:14:28.575Z,10.55
2022-12-27T02:16:56.862Z,10.93
2022-12-27T02:19:56.404Z,9.80
2022-12-27T02:22:23.552Z,10.63
2022-12-27T02:24:59.807Z,10.23
2022-12-27T02:27:37.943Z,11.10
2022-12-27T02:30:06.807Z,10.45
2022-12-27T02:32:46.475Z,11.45
2022-12-27T02:35:16.684Z,11.13
2022-12-27T02:37:55.814Z,10.18
2022-12-27T02:40:43.378Z,8.90
2022-12-27T02:43:29.847Z,11.18
2022-12-27T02:46:38.565Z,11.38
2022-12-27T02:49:42.446Z,11.05
2022-12-27T02:52:36.474Z,10.27
2022-12-27T02:55:12.065Z,10.98
2022-12-27T02:57:47.734Z,11.25
2022-12-27T03:00:36.215Z,12.68
2022-12-27T03:03:23.647Z,11.85
2022-12-27T03:06:18.646Z,11.05
2022-12-27T03:08:58.361Z,12.75
2022-12-27T03:11:45.773Z,11.65
2022-12-27T03:14:37.500Z,11.40
2022-12-27T03:17:10.256Z,12.95
2022-12-27T03:20:03.603Z,12.65
2022-12-27T03:22:50.205Z,12.73
2022-12-27T03:25:29.806Z,11.23
2022-12-27T03:28:17.927Z,11.90
2022-12-27T03:31:04.871Z,11.55
2022-12-27T03:33:32.951Z,11.45
2022-12-27T03:36:21.613Z,11.20
2022-12-27T03:38:53.380Z,11.57
2022-12-27T03:41:59.468Z,11.95
2022-12-27T03:44:26.898Z,11.73
2022-12-27T03:47:08.169Z,12.57
2022-12-27T03:49:38.538Z,12.45
2022-12-27T03:52:05.603Z,13.10
2022-12-27T03:54:35.341Z,12.43
2022-12-27T03:57:13.551Z,12.18
2022-12-27T03:59:40.824Z,12.75
2022-12-27T04:02:08.447Z,11.45
2022-12-27T04:04:35.698Z,13.05
2022-12-27T04:07:02.811Z,12.32
2022-12-27T04:09:48.822Z,12.50
2022-12-27T04:12:34.860Z,11.55
2022-12-27T04:15:20.912Z,11.63
2022-12-27T04:18:07.019Z,12.20
2022-12-27T04:20:53.002Z,11.82
2022-12-27T04:23:38.926Z,12.15
2022-12-27T04:26:25.079Z,12.02
2022-12-27T04:29:11.015Z,12.48
2022-12-27T04:31:57.158Z,12.68
2022-12-27T04:34:42.634Z,13.25
2022-12-27T04:37:19.838Z,12.70
2022-12-27T04:40:06.370Z,13.57
2022-12-27T04:42:52.200Z,13.45
2022-12-27T04:45:37.911Z,13.82
2022-12-27T04:48:24.018Z,14.27
2022-12-27T04:51:09.997Z,15.88
2022-12-27T04:53:55.881Z,17.48
2022-12-27T04:56:22.970Z,17.00
2022-12-27T04:59:08.507Z,16.38
2022-12-27T05:01:54.445Z,15.23
2022-12-27T05:04:21.663Z,15.13
2022-12-27T05:06:48.787Z,15.40
2022-12-27T05:09:34.460Z,14.88
2022-12-27T05:12:20.556Z,16.02
2022-12-27T05:14:47.728Z,15.68
2022-12-27T05:17:14.876Z,17.48
2022-12-27T05:19:41.938Z,17.48
2022-12-27T05:22:27.857Z,17.23
2022-12-27T05:25:13.701Z,17.67
2022-12-27T05:27:40.854Z,19.95
2022-12-27T05:30:08.241Z,21.13
2022-12-27T05:32:35.334Z,19.63
2022-12-27T05:35:02.481Z,19.63
2022-12-27T05:37:29.560Z,19.40
2022-12-27T05:39:56.634Z,21.17
2022-12-27T05:42:23.762Z,19.83
2022-12-27T05:44:50.833Z,20.63
2022-12-27T05:47:17.923Z,20.58
2022-12-27T05:49:45.079Z,20.80
2022-12-27T05:52:12.183Z,19.52
2022-12-27T05:54:39.290Z,19.90
2022-12-27T05:57:06.435Z,22.13
2022-12-27T05:59:33.518Z,23.13
2022-12-27T06:02:01.648Z,23.25
2022-12-27T06:04:29.030Z,22.25
2022-12-27T06:06:56.206Z,23.17
2022-12-27T06:09:23.360Z,23.02
2022-12-27T06:11:50.510Z,22.42
2022-12-27T06:14:17.600Z,24.17
2022-12-27T06:16:44.729Z,23.98
2022-12-27T06:19:11.939Z,23.67
2022-12-27T06:21:39.325Z,24.88
2022-12-27T06:24:06.527Z,24.92
2022-12-27T06:26:34.011Z,25.38
2022-12-27T06:29:01.109Z,28.05
2022-12-27T06:31:28.560Z,29.15
2022-12-27T06:33:56.152Z,31.45
2022-12-27T06:36:24.650Z,29.48
2022-12-27T06:38:51.736Z,30.88
2022-12-27T06:41:19.180Z,31.90
2022-12-27T06:43:46.984Z,31.58
2022-12-27T06:46:17.820Z,31.08
2022-12-27T06:51:13.544Z,29.15
2022-12-27T06:53:40.695Z,31.00
2022-12-27T06:56:09.193Z,31.50
2022-12-27T06:58:36.316Z,32.78
2022-12-27T07:01:10.430Z,32.42
2022-12-27T07:03:37.579Z,33.15
2022-12-27T07:06:05.364Z,32.80
2022-12-27T07:08:32.724Z,33.45
2022-12-27T07:11:00.836Z,34.63
2022-12-27T07:13:28.083Z,34.75
2022-12-27T07:15:55.333Z,35.53
2022-12-27T07:18:22.436Z,37.50
2022-12-27T07:20:49.506Z,38.55
2022-12-27T07:23:19.388Z,37.40
2022-12-27T07:25:46.701Z,36.83
2022-12-27T07:28:13.814Z,36.25
2022-12-27T07:30:41.965Z,35.05
2022-12-27T07:33:09.508Z,35.97
2022-12-27T07:35:40.802Z,36.47
2022-12-27T07:38:10.684Z,36.53
2022-12-27T07:40:37.927Z,35.60
2022-12-27T07:43:05.089Z,38.17
2022-12-27T07:45:33.065Z,38.17
2022-12-27T07:48:00.259Z,38.30
2022-12-27T07:50:27.447Z,37.05
2022-12-27T07:52:54.611Z,42.20
2022-12-27T07:55:21.702Z,40.17
2022-12-27T07:57:48.830Z,39.63
2022-12-27T08:00:16.448Z,39.65
2022-12-27T08:02:43.597Z,40.83
2022-12-27T08:05:10.737Z,39.63
2022-12-27T08:07:38.702Z,40.38
2022-12-27T08:10:06.256Z,44.28
2022-12-27T08:12:33.335Z,38.60
2022-12-27T08:15:00.522Z,44.70
2022-12-27T08:17:28.303Z,42.65
2022-12-27T08:19:55.875Z,40.95
2022-12-27T08:22:23.922Z,42.05
2022-12-27T08:24:51.199Z,39.15
2022-12-27T08:27:22.324Z,43.20
2022-12-27T08:29:49.472Z,41.45
2022-12-27T08:32:17.001Z,44.00
2022-12-27T08:34:44.131Z,42.10
2022-12-27T08:37:11.345Z,39.67
2022-12-27T08:39:38.411Z,41.40
2022-12-27T08:42:05.516Z,42.28
2022-12-27T08:44:32.651Z,39.78
2022-12-27T08:46:59.753Z,40.10
2022-12-27T08:49:26.928Z,44.45
2022-12-27T08:51:54.067Z,38.25
2022-12-27T08:54:21.349Z,39.78
2022-12-27T08:56:48.445Z,40.63
2022-12-27T08:59:15.606Z,41.50
2022-12-27T09:01:42.937Z,38.92
2022-12-27T09:04:10.095Z,37.80
2022-12-27T09:06:37.267Z,36.88
2022-12-27T09:09:04.411Z,35.70
2022-12-27T09:11:33.155Z,38.58
2022-12-27T09:14:04.829Z,35.75
2022-12-27T09:16:34.080Z,37.20
2022-12-27T09:19:01.309Z,36.80
2022-12-27T09:21:29.948Z,36.25
2022-12-27T09:23:57.165Z,36.40
2022-12-27T09:26:26.230Z,35.90
2022-12-27T09:28:53.766Z,35.00
2022-12-27T09:31:21.544Z,34.60
2022-12-27T09:33:48.747Z,37.30
2022-12-27T09:36:17.504Z,38.30
2022-12-27T09:38:45.212Z,35.80
2022-12-27T09:42:25.968Z,36.13
2022-12-27T09:44:32.718Z,37.80
2022-12-27T09:47:05.424Z,38.22
2022-12-27T09:49:38.566Z,36.15
2022-12-27T09:52:08.341Z,35.72
2022-12-27T09:54:40.203Z,34.60
2022-12-27T09:57:22.070Z,33.67
2022-12-27T09:59:50.270Z,35.15
2022-12-27T10:02:25.026Z,32.72
2022-12-27T10:05:19.298Z,33.95
2022-12-27T10:07:48.967Z,32.70
2022-12-27T10:10:16.100Z,33.38
2022-12-27T10:12:52.561Z,31.90
2022-12-27T10:15:25.168Z,34.58
2022-12-27T10:18:07.479Z,33.30
2022-12-27T10:20:55.601Z,32.38
2022-12-27T10:23:27.345Z,34.03
2022-12-27T10:25:58.130Z,35.20
2022-12-27T10:28:29.017Z,32.75
2022-12-27T10:30:56.425Z,34.42
2022-12-27T10:33:29.496Z,31.55
2022-12-27T10:35:57.309Z,30.23
2022-12-27T10:38:24.621Z,32.08
2022-12-27T10:41:14.867Z,30.75
2022-12-27T10:43:43.353Z,31.67
2022-12-27T10:46:12.820Z,32.25
2022-12-27T10:49:11.235Z,31.55
2022-12-27T10:51:28.435Z,32.13
2022-12-27T10:53:59.665Z,29.98
2022-12-27T10:56:29.611Z,28.70
2022-12-27T10:59:06.051Z,31.00
2022-12-27T11:01:33.867Z,31.55
2022-12-27T11:04:23.534Z,32.33
2022-12-27T11:06:51.875Z,31.63
2022-12-27T11:09:50.138Z,32.60
2022-12-27T11:12:17.693Z,30.08
2022-12-27T11:15:05.746Z,30.77
2022-12-27T11:17:52.603Z,30.52
2022-12-27T11:20:25.541Z,30.55
2022-12-27T11:22:58.574Z,32.10
2022-12-27T11:25:27.711Z,30.55
2022-12-27T11:27:56.310Z,30.15
2022-12-27T11:30:29.725Z,28.08
2022-12-27T11:32:58.286Z,29.15
2022-12-27T11:35:25.455Z,28.80
2022-12-27T11:37:52.795Z,29.15
2022-12-27T11:40:25.082Z,28.83
2022-12-27T11:42:54.161Z,26.55
2022-12-27T11:45:22.953Z,25.88
2022-12-27T11:48:14.207Z,26.50
2022-12-27T11:50:45.820Z,28.13
2022-12-27T11:53:29.788Z,27.60
2022-12-27T11:56:06.216Z,29.02
2022-12-27T11:58:42.588Z,31.88
2022-12-27T12:01:28.081Z,31.95
2022-12-27T12:04:11.146Z,31.33
2022-12-27T12:06:38.440Z,30.42
2022-12-27T12:09:11.511Z,28.50
2022-12-27T12:11:38.609Z,28.85
2022-12-27T12:14:24.267Z,43.25
2022-12-27T12:16:51.388Z,34.97
2022-12-27T12:19:21.385Z,30.38
2022-12-27T12:22:07.108Z,33.17
2022-12-27T12:24:43.625Z,31.30
2022-12-27T12:27:18.412Z,29.73
2022-12-27T12:29:48.346Z,29.00
2022-12-27T12:32:18.262Z,28.38
2022-12-27T12:35:04.052Z,26.95
2022-12-27T12:37:46.599Z,29.15
2022-12-27T12:40:38.646Z,30.38
2022-12-27T12:43:26.394Z,29.92
2022-12-27T12:46:01.382Z,29.77
2022-12-27T12:48:31.697Z,30.33
2022-12-27T12:51:14.581Z,29.00
2022-12-27T12:53:57.116Z,28.27
2022-12-27T12:56:43.312Z,27.25
2022-12-27T12:59:10.471Z,29.33
2022-12-27T13:01:37.621Z,29.50
2022-12-27T13:04:24.167Z,31.00
2022-12-27T13:06:51.231Z,30.65
2022-12-27T13:09:21.445Z,31.40
2022-12-27T13:12:07.303Z,32.85
2022-12-27T16:32:16.644Z,1.63
2022-12-27T16:34:44.776Z,1.20
2022-12-27T16:37:23.924Z,0.82
2022-12-27T16:40:07.385Z,1.27
2022-12-27T16:43:00.744Z,0.70
2022-12-27T16:45:30.885Z,0.47
2022-12-27T16:48:03.924Z,0.70
2022-12-27T16:50:40.486Z,1.90
2022-12-27T16:53:11.193Z,1.23
2022-12-27T16:55:56.341Z,1.42
2022-12-27T16:58:25.699Z,1.50
2022-12-27T17:00:54.873Z,1.50
2022-12-27T17:03:21.953Z,1.25
2022-12-27T17:06:30.076Z,1.65
2022-12-27T17:08:37.579Z,1.80
2022-12-27T17:11:25.027Z,1.35
2022-12-27T17:13:56.939Z,1.35
2022-12-27T17:16:25.354Z,1.98
2022-12-27T17:18:57.973Z,2.03
2022-12-27T17:21:30.453Z,2.20
2022-12-27T17:24:17.167Z,1.40
2022-12-27T17:27:02.616Z,1.52
2022-12-27T17:29:35.919Z,1.50
2022-12-27T17:32:13.588Z,1.63
2022-12-27T17:34:51.138Z,1.60
2022-12-27T17:37:24.082Z,1.52
2022-12-27T17:39:57.737Z,1.95
2022-12-27T17:42:52.540Z,1.70
2022-12-27T17:45:31.220Z,2.10
2022-12-27T17:48:06.858Z,2.20
2022-12-27T17:50:36.110Z,2.00
2022-12-27T17:53:31.154Z,1.65
2022-12-27T17:56:37.016Z,1.70
2022-12-27T17:59:04.189Z,1.60
2022-12-27T18:01:34.011Z,1.50
2022-12-27T18:04:01.302Z,1.55
2022-12-27T18:06:30.597Z,1.77
2022-12-27T18:08:57.996Z,2.67
2022-12-27T18:11:33.352Z,2.17
2022-12-27T18:14:00.745Z,2.38
2022-12-27T18:16:36.246Z,2.60
2022-12-27T18:19:03.474Z,2.10
2022-12-27T18:21:30.734Z,2.22
2022-12-27T18:23:58.046Z,2.95
2022-12-27T18:26:38.440Z,2.97
2022-12-27T18:29:06.150Z,3.22
2022-12-27T18:31:36.923Z,4.82
2022-12-27T18:34:08.770Z,3.53
2022-12-27T18:36:46.300Z,2.50
2022-12-27T18:39:23.611Z,4.05
2022-12-27T18:41:52.521Z,3.47
2022-12-27T18:44:26.848Z,3.00
2022-12-27T18:46:56.016Z,2.95
2022-12-27T18:49:33.592Z,3.13
2022-12-27T18:52:01.331Z,3.22
2022-12-27T18:54:28.462Z,3.55
2022-12-27T18:56:56.795Z,3.72
2022-12-27T18:59:28.976Z,2.35
2022-12-27T19:01:57.799Z,4.00
2022-12-27T19:04:26.640Z,4.15
2022-12-27T19:07:08.956Z,3.15
2022-12-27T19:09:56.651Z,3.90
2022-12-27T19:12:34.162Z,3.20
2022-12-27T19:15:02.143Z,3.30
2022-12-27T19:17:31.138Z,3.25
2022-12-27T19:20:02.947Z,3.85
2022-12-27T19:22:43.479Z,3.25
2022-12-27T19:25:24.850Z,2.40
2022-12-27T19:27:59.429Z,2.83
2022-12-27T19:30:30.930Z,2.58
2022-12-27T19:32:58.154Z,3.30
2022-12-27T19:35:25.289Z,2.97
2022-12-27T19:37:52.563Z,3.15
2022-12-27T19:40:19.658Z,2.80
2022-12-27T19:42:46.953Z,3.30
2022-12-27T19:45:15.403Z,2.80
2022-12-27T19:47:42.534Z,3.15
2022-12-27T19:50:10.579Z,2.85
2022-12-27T19:52:37.743Z,3.17
2022-12-27T19:55:09.193Z,3.63
2022-12-27T19:57:36.357Z,2.85
2022-12-27T20:00:10.427Z,3.08
2022-12-27T20:02:39.637Z,2.25
2022-12-27T20:05:07.119Z,2.90
2022-12-27T20:07:34.265Z,2.53
2022-12-27T20:10:01.510Z,1.77
2022-12-27T20:12:28.818Z,2.08
2022-12-27T20:14:55.940Z,2.40
2022-12-27T20:17:23.088Z,2.70
2022-12-27T20:19:51.738Z,2.78
2022-12-27T20:22:18.852Z,2.58
2022-12-27T20:24:47.171Z,3.28
2022-12-27T20:27:14.402Z,2.83
2022-12-27T20:29:41.507Z,4.13
2022-12-27T20:32:08.678Z,2.47
2022-12-27T20:34:35.881Z,2.53
2022-12-27T20:37:03.183Z,2.22
2022-12-27T20:39:30.248Z,3.15
2022-12-27T20:41:57.490Z,2.28
2022-12-27T20:44:24.635Z,2.70
2022-12-27T20:46:51.719Z,2.47
2022-12-27T20:49:18.847Z,1.85
2022-12-27T20:51:46.003Z,1.83
2022-12-27T20:54:13.986Z,2.50
2022-12-27T20:56:41.234Z,2.05
2022-12-27T20:59:08.368Z,1.95
2022-12-27T21:01:35.602Z,2.33
2022-12-27T21:04:04.052Z,2.38
2022-12-27T21:06:31.393Z,2.85
2022-12-27T21:08:58.797Z,2.42
2022-12-27T21:11:27.461Z,2.65
2022-12-27T21:13:55.268Z,2.63
2022-12-27T21:16:23.574Z,2.10
2022-12-27T21:18:51.003Z,2.70
2022-12-27T21:21:20.026Z,2.67
2022-12-27T21:23:47.234Z,2.70
2022-12-27T21:26:21.645Z,2.60
2022-12-27T21:28:48.999Z,2.30
2022-12-27T21:31:16.963Z,2.58
2022-12-27T21:33:44.365Z,2.92
2022-12-27T21:36:13.570Z,2.60
2022-12-27T21:38:40.893Z,2.25
2022-12-27T21:41:10.542Z,2.03
2022-12-27T21:43:37.718Z,2.78
2022-12-27T21:46:06.668Z,2.15
2022-12-27T21:48:33.925Z,2.60
2022-12-27T21:51:07.515Z,2.40
2022-12-27T21:53:34.779Z,1.80
2022-12-27T21:56:02.186Z,1.60
2022-12-27T21:58:37.143Z,2.60
2022-12-27T22:01:09.294Z,2.92
2022-12-27T22:03:38.715Z,2.33
2022-12-27T22:06:12.223Z,2.83
2022-12-27T22:08:39.916Z,2.28
2022-12-27T22:11:07.115Z,2.45
2022-12-27T22:13:34.297Z,2.90
2022-12-27T22:16:02.874Z,2.78
2022-12-27T22:18:31.446Z,2.60
2022-12-27T22:21:02.511Z,2.72
2022-12-27T22:23:33.708Z,3.08
2022-12-27T22:26:01.146Z,2.50
2022-12-27T22:28:28.629Z,3.17
2022-12-27T22:30:55.847Z,2.33
2022-12-27T22:33:23.024Z,2.50
2022-12-27T22:35:50.142Z,2.53
2022-12-27T22:38:17.293Z,3.22
2022-12-27T22:40:46.126Z,3.28
2022-12-27T22:43:13.632Z,3.05
2022-12-27T22:45:46.509Z,3.28
2022-12-27T22:48:17.497Z,3.17
2022-12-27T22:50:44.641Z,3.85
2022-12-27T22:53:11.715Z,3.10
2022-12-27T22:55:41.121Z,3.38
2022-12-27T22:58:08.262Z,3.80
2022-12-27T23:00:35.363Z,2.72
2022-12-27T23:03:02.449Z,2.67
2022-12-27T23:05:29.612Z,3.47
2022-12-27T23:08:04.789Z,3.50
2022-12-27T23:10:34.126Z,2.80
2022-12-27T23:13:01.250Z,3.53
2022-12-27T23:15:28.343Z,4.00
2022-12-27T23:17:55.491Z,3.65
2022-12-27T23:20:22.583Z,2.67
2022-12-27T23:22:49.692Z,3.35
2022-12-27T23:25:16.955Z,3.95
2022-12-27T23:27:44.051Z,3.25
2022-12-27T23:30:11.579Z,3.03
2022-12-27T23:32:38.719Z,3.17
2022-12-27T23:35:06.035Z,3.40
2022-12-27T23:37:33.188Z,3.60
2022-12-27T23:40:00.323Z,3.10
2022-12-27T23:42:27.539Z,2.95
2022-12-27T23:44:54.712Z,3.50
2022-12-27T23:47:21.860Z,2.80
2022-12-27T23:49:48.946Z,3.40
2022-12-27T23:52:16.314Z,2.25
2022-12-27T23:54:43.520Z,3.38
2022-12-27T23:57:20.590Z,2.72
2022-12-27T23:59:49.805Z,3.88
